Time;durP1;ratioP1;P1;durP2;ratioP2;P2;SDS_P1;SDS_P2;PMS_P1;PMS_P2;Temp;Humidity;BMP_temperature;BMP_pressure;BME280_temperature;BME280_humidity;BME280_pressure;Samples;Min_cycle;Max_cycle;Signal;HPM_P1;HPM_P2
2022/12/18 00:01:27;;;;;;;15.52;10.65;;;-2.80;99.90;;;;;;4976719;28;20035;-82
2022/12/18 00:03:55;;;;;;;20.77;11.35;;;-2.80;99.90;;;;;;4978278;28;20025;-78
2022/12/18 00:06:22;;;;;;;19.05;13.98;;;-2.80;99.90;;;;;;4974651;28;20029;-78
2022/12/18 00:08:48;;;;;;;14.32;10.50;;;-2.80;99.90;;;;;;4966466;28;20023;-77
2022/12/18 00:11:20;;;;;;;17.98;11.15;;;-2.90;99.90;;;;;;4963970;28;20041;-78
2022/12/18 00:13:46;;;;;;;8.88;7.13;;;-2.90;99.90;;;;;;4976364;28;20023;-78
2022/12/18 00:16:20;;;;;;;19.98;11.38;;;-2.90;99.90;;;;;;4976388;28;20110;-78
2022/12/18 00:18:47;;;;;;;15.38;10.90;;;-2.90;99.90;;;;;;4976107;28;20031;-78
2022/12/18 00:21:14;;;;;;;23.00;11.50;;;-2.90;99.90;;;;;;4975745;28;20027;-80
2022/12/18 00:23:41;;;;;;;20.52;11.05;;;-2.80;99.90;;;;;;4975441;28;20126;-78
2022/12/18 00:26:23;;;;;;;17.70;12.25;;;-2.90;99.90;;;;;;4975713;28;20421;-79
2022/12/18 00:28:49;;;;;;;15.40;10.07;;;-2.90;99.90;;;;;;4975837;28;20023;-80
2022/12/18 00:31:20;;;;;;;14.35;9.75;;;-2.90;99.90;;;;;;4976699;28;20062;-81
2022/12/18 00:33:46;;;;;;;9.65;7.60;;;-2.90;99.90;;;;;;4982527;28;20027;-79
2022/12/18 00:36:15;;;;;;;19.80;11.38;;;-3.00;99.90;;;;;;4989300;28;20090;-79
2022/12/18 00:38:42;;;;;;;17.85;11.40;;;-3.00;99.90;;;;;;4980577;28;20026;-81
2022/12/18 00:41:09;;;;;;;20.08;11.52;;;-3.00;99.90;;;;;;4974177;28;20038;-78
2022/12/18 00:43:35;;;;;;;15.52;9.90;;;-3.00;99.90;;;;;;4972156;28;20027;-79
2022/12/18 00:46:02;;;;;;;16.85;10.93;;;-3.00;99.90;;;;;;4987449;28;20042;-78
2022/12/18 00:48:27;;;;;;;20.60;13.70;;;-3.00;99.90;;;;;;4989215;28;20035;-80
2022/12/18 00:50:54;;;;;;;14.77;10.88;;;-3.00;99.90;;;;;;4996046;28;20106;-80
2022/12/18 00:53:20;;;;;;;18.95;11.07;;;-3.10;99.90;;;;;;4994937;28;20395;-80
2022/12/18 00:55:46;;;;;;;15.05;11.35;;;-3.10;99.90;;;;;;4976995;28;20026;-81
2022/12/18 00:58:14;;;;;;;14.20;10.73;;;-3.10;99.90;;;;;;4995518;28;20029;-80
2022/12/18 01:00:39;;;;;;;;;;;-3.10;99.90;;;;;;4978366;28;20042;-81
2022/12/18 01:03:05;;;;;;;18.25;11.52;;;-3.10;99.90;;;;;;4998170;28;20326;-79
2022/12/18 01:05:32;;;;;;;12.02;8.30;;;-3.10;99.90;;;;;;4997671;28;20045;-80
2022/12/18 01:07:59;;;;;;;17.15;8.98;;;-3.10;99.90;;;;;;4979097;28;20018;-81
2022/12/18 01:10:26;;;;;;;25.98;13.00;;;-3.20;99.90;;;;;;4972077;28;20075;-80
2022/12/18 01:12:52;;;;;;;17.85;13.70;;;-3.20;99.90;;;;;;4987032;28;20027;-81
2022/12/18 01:15:19;;;;;;;13.05;11.23;;;-3.20;99.90;;;;;;4994228;28;20044;-82
2022/12/18 01:17:44;;;;;;;17.20;10.70;;;-3.30;99.90;;;;;;4994331;28;20059;-82
2022/12/18 01:20:11;;;;;;;18.25;13.23;;;-3.30;99.90;;;;;;4994028;28;20476;-81
2022/12/18 01:22:37;;;;;;;14.77;8.85;;;-3.30;99.90;;;;;;4993278;28;20054;-79
2022/12/18 01:25:05;;;;;;;14.23;10.43;;;-3.30;99.90;;;;;;4994040;28;20080;-80
2022/12/18 01:27:33;;;;;;;16.98;9.63;;;-3.30;99.90;;;;;;4994709;28;20026;-81
2022/12/18 01:29:58;;;;;;;12.65;9.90;;;-3.30;99.90;;;;;;4987883;28;20026;-82
2022/12/18 01:32:24;;;;;;;17.95;10.48;;;-3.30;99.90;;;;;;4994144;28;20029;-80
2022/12/18 01:34:50;;;;;;;15.48;9.60;;;-3.30;99.90;;;;;;4993485;28;20041;-82
2022/12/18 01:37:16;;;;;;;14.65;10.25;;;-3.30;99.90;;;;;;4993479;28;20029;-80
2022/12/18 01:39:42;;;;;;;16.45;10.73;;;-3.20;99.90;;;;;;4995542;28;20080;-80
2022/12/18 01:42:15;;;;;;;22.05;11.70;;;-3.20;99.90;;;;;;5001104;28;20392;-80
2022/12/18 01:45:01;;;;;;;14.32;8.60;;;-3.30;99.90;;;;;;4993472;28;20030;-80
2022/12/18 01:47:53;;;;;;;7.43;4.68;;;-3.20;99.90;;;;;;4994208;28;20023;-79
2022/12/18 01:50:27;;;;;;;15.73;9.57;;;-3.20;99.90;;;;;;4986491;28;20452;-81
2022/12/18 01:53:08;;;;;;;14.40;8.52;;;-3.20;99.90;;;;;;4976422;28;20104;-80
2022/12/18 01:55:43;;;;;;;17.27;9.82;;;-3.20;99.90;;;;;;4975985;28;20026;-81
2022/12/18 01:58:09;;;;;;;14.85;9.52;;;-3.20;99.90;;;;;;4993234;28;20022;-81
2022/12/18 02:00:35;;;;;;;15.98;9.13;;;-3.20;99.90;;;;;;4975765;28;20087;-81
2022/12/18 02:03:01;;;;;;;14.30;10.15;;;-3.20;99.90;;;;;;4993256;28;20484;-81
2022/12/18 02:05:55;;;;;;;15.20;9.85;;;-3.10;99.90;;;;;;4975884;28;20046;-80
2022/12/18 02:08:32;;;;;;;16.23;12.18;;;-3.10;99.90;;;;;;4993610;28;20018;-80
2022/12/18 02:11:13;;;;;;;19.40;11.30;;;-3.10;99.90;;;;;;4976118;28;20096;-80
2022/12/18 02:14:03;;;;;;;14.10;9.88;;;-3.10;99.90;;;;;;4993168;28;20025;-81
2022/12/18 02:16:40;;;;;;;17.42;10.68;;;-3.10;99.90;;;;;;4979343;28;20037;-80
2022/12/18 02:19:53;;;;;;;15.38;9.65;;;-3.10;99.90;;;;;;4976138;28;20028;-81
2022/12/18 02:22:40;;;;;;;19.85;10.73;;;-3.10;99.90;;;;;;4979970;28;20026;-79
2022/12/18 02:25:13;;;;;;;14.27;9.35;;;-3.10;99.90;;;;;;4996436;28;20042;-78
2022/12/18 02:27:43;;;;;;;16.90;10.15;;;-3.10;99.90;;;;;;5007642;28;20022;-79
2022/12/18 02:30:10;;;;;;;16.63;10.88;;;-3.10;99.90;;;;;;4996879;28;20033;-83
2022/12/18 02:32:40;;;;;;;11.70;9.33;;;-3.00;99.90;;;;;;4977955;28;20028;-80
2022/12/18 02:35:12;;;;;;;12.70;8.52;;;-3.00;99.90;;;;;;4994476;28;20267;-80
2022/12/18 02:37:40;;;;;;;14.77;10.15;;;-3.00;99.90;;;;;;4975827;28;20106;-81
2022/12/18 02:40:07;;;;;;;14.95;9.52;;;-3.10;99.90;;;;;;4987827;28;20110;-81
2022/12/18 02:42:33;;;;;;;16.80;9.20;;;-3.00;99.90;;;;;;4991050;28;20024;-81
2022/12/18 02:44:59;;;;;;;16.52;9.13;;;-3.00;99.90;;;;;;4992711;28;20121;-82
2022/12/18 02:47:31;;;;;;;14.13;9.63;;;-3.00;99.90;;;;;;4992775;28;20060;-79
2022/12/18 02:50:05;;;;;;;14.60;9.40;;;-3.00;99.90;;;;;;4972759;28;20030;-82
2022/12/18 02:52:46;;;;;;;13.38;9.23;;;-3.00;99.90;;;;;;4993352;28;20027;-80
2022/12/18 02:55:17;;;;;;;18.90;10.85;;;-3.00;99.90;;;;;;4975636;28;20029;-80
2022/12/18 02:57:52;;;;;;;12.27;8.57;;;-3.10;99.90;;;;;;4992522;28;20054;-80
2022/12/18 03:00:27;;;;;;;11.05;8.20;;;-3.10;99.90;;;;;;4992690;28;20474;-80
2022/12/18 03:03:11;;;;;;;15.82;9.75;;;-3.00;99.90;;;;;;4974672;28;20028;-81
2022/12/18 03:05:47;;;;;;;17.48;9.40;;;-3.00;99.90;;;;;;4992335;28;20439;-81
2022/12/18 03:08:19;;;;;;;15.35;10.35;;;-3.10;99.90;;;;;;4992313;28;20073;-82
2022/12/18 03:11:10;;;;;;;16.02;10.55;;;-3.10;99.90;;;;;;4993254;28;20026;-80
2022/12/18 03:13:41;;;;;;;18.05;10.10;;;-3.10;99.90;;;;;;4980588;28;20472;-79
2022/12/18 03:16:10;;;;;;;12.77;8.63;;;-3.10;99.90;;;;;;4992287;28;20027;-79
2022/12/18 03:18:47;;;;;;;13.85;8.98;;;-3.10;99.90;;;;;;4992426;28;20025;-81
2022/12/18 03:21:14;;;;;;;17.00;10.07;;;-3.10;99.90;;;;;;4992416;28;20027;-81
2022/12/18 03:23:47;;;;;;;13.40;9.88;;;-3.10;99.90;;;;;;4992373;28;20018;-80
2022/12/18 03:26:19;;;;;;;15.65;10.10;;;-3.10;99.90;;;;;;4992961;28;20035;-80
2022/12/18 03:28:58;;;;;;;11.68;7.57;;;-3.10;99.90;;;;;;4992337;28;20027;-80
2022/12/18 03:31:28;;;;;;;18.27;10.13;;;-3.10;99.90;;;;;;4992260;28;20498;-81
2022/12/18 03:33:58;;;;;;;12.13;8.68;;;-3.20;99.90;;;;;;4992280;28;20380;-80
2022/12/18 03:36:25;;;;;;;14.30;10.52;;;-3.10;99.90;;;;;;4992167;28;20560;-81
2022/12/18 03:38:51;;;;;;;13.88;8.20;;;-3.10;99.90;;;;;;4974374;28;20026;-81
2022/12/18 03:41:53;;;;;;;13.63;9.90;;;-3.10;99.90;;;;;;4984576;28;20751;-81
2022/12/18 03:44:22;;;;;;;13.77;8.90;;;-3.20;99.90;;;;;;4954548;28;20046;-82
2022/12/18 03:46:58;;;;;;;12.93;8.05;;;-3.20;99.90;;;;;;4995859;28;20062;-80
2022/12/18 03:49:59;;;;;;;14.95;9.45;;;-3.30;99.90;;;;;;4978535;28;20129;-80
2022/12/18 03:52:50;;;;;;;12.85;8.57;;;-3.30;99.90;;;;;;4991360;28;20437;-79
2022/12/18 03:55:18;;;;;;;18.15;8.45;;;-3.30;99.90;;;;;;4945685;28;20038;-79
2022/12/18 03:57:45;;;;;;;15.52;9.52;;;-3.30;99.90;;;;;;4975261;28;20576;-80
2022/12/18 04:00:14;;;;;;;14.65;8.88;;;-3.30;99.90;;;;;;4995462;28;20403;-81
2022/12/18 04:02:44;;;;;;;15.95;10.13;;;-3.20;99.90;;;;;;4995469;28;20030;-80
2022/12/18 04:05:11;;;;;;;11.48;7.72;;;-3.20;99.90;;;;;;4997038;28;20085;-80
2022/12/18 04:07:38;;;;;;;12.00;8.15;;;-3.20;99.90;;;;;;4996350;28;20102;-81
2022/12/18 04:10:08;;;;;;;13.25;7.22;;;-3.30;99.90;;;;;;4995614;28;20022;-80
2022/12/18 04:12:33;;;;;;;11.70;8.48;;;-3.20;99.90;;;;;;4995842;28;20027;-80
2022/12/18 04:14:59;;;;;;;11.77;7.15;;;-3.20;99.90;;;;;;4977957;28;20029;-80
2022/12/18 04:17:25;;;;;;;13.35;8.32;;;-3.20;99.90;;;;;;4979368;28;20026;-80
2022/12/18 04:19:51;;;;;;;10.73;8.20;;;-3.20;99.90;;;;;;5008114;28;20030;-79
2022/12/18 04:22:17;;;;;;;12.32;8.05;;;-3.20;99.90;;;;;;5002582;28;20026;-80
2022/12/18 04:24:43;;;;;;;13.50;8.88;;;-3.20;99.90;;;;;;4995941;28;20126;-80
2022/12/18 04:27:09;;;;;;;12.25;7.75;;;-3.30;99.90;;;;;;4997210;28;20091;-80
2022/12/18 04:29:35;;;;;;;15.18;9.63;;;-3.30;99.90;;;;;;4997704;28;20049;-80
2022/12/18 04:32:01;;;;;;;11.55;8.63;;;-3.30;99.90;;;;;;4997519;28;20484;-78
2022/12/18 04:34:32;;;;;;;12.70;8.80;;;-3.30;99.90;;;;;;4996095;28;20022;-81
2022/12/18 04:36:57;;;;;;;10.23;6.45;;;-3.30;99.90;;;;;;4995020;28;20076;-81
2022/12/18 04:39:24;;;;;;;14.27;8.88;;;-3.30;99.90;;;;;;4981451;28;20022;-79
2022/12/18 04:41:50;;;;;;;9.63;6.77;;;-3.40;99.90;;;;;;4995242;28;20415;-79
2022/12/18 04:44:16;;;;;;;12.68;7.70;;;-3.40;99.90;;;;;;4977821;28;20037;-79
2022/12/18 04:46:42;;;;;;;11.80;8.27;;;-3.40;99.90;;;;;;4994934;28;20061;-80
2022/12/18 04:49:10;;;;;;;13.98;8.02;;;-3.40;99.90;;;;;;4992515;28;20041;-79
2022/12/18 04:51:36;;;;;;;12.05;8.23;;;-3.40;99.90;;;;;;4986792;28;20050;-79
2022/12/18 04:54:03;;;;;;;12.48;7.38;;;-3.40;99.90;;;;;;4994686;28;20077;-81
2022/12/18 04:56:31;;;;;;;13.32;8.25;;;-3.50;99.90;;;;;;4977053;28;20068;-78
2022/12/18 04:58:57;;;;;;;15.38;8.13;;;-3.50;99.90;;;;;;4994679;28;20026;-80
2022/12/18 05:01:23;;;;;;;8.57;5.88;;;-3.50;99.90;;;;;;4994346;28;20022;-80
2022/12/18 05:03:51;;;;;;;8.85;7.25;;;-3.40;99.90;;;;;;4995346;28;20018;-81
2022/12/18 05:06:17;;;;;;;10.68;7.75;;;-3.40;99.90;;;;;;4999919;28;20045;-81
2022/12/18 05:08:43;;;;;;;14.27;6.55;;;-3.50;99.90;;;;;;4994576;28;20026;-81
2022/12/18 05:11:12;;;;;;;14.52;8.73;;;-3.50;99.90;;;;;;4980877;28;20380;-82
2022/12/18 05:13:38;;;;;;;12.63;7.47;;;-3.50;99.90;;;;;;4994508;28;20030;-80
2022/12/18 05:16:05;;;;;;;14.45;8.52;;;-3.50;99.90;;;;;;4977050;28;20491;-82
2022/12/18 05:18:31;;;;;;;12.05;8.27;;;-3.50;99.90;;;;;;4996862;28;20054;-84
2022/12/18 05:20:57;;;;;;;14.32;7.45;;;-3.50;99.90;;;;;;5003019;28;20058;-81
2022/12/18 05:23:24;;;;;;;14.13;7.95;;;-3.40;99.90;;;;;;4996059;28;20105;-81
2022/12/18 05:25:58;;;;;;;10.75;6.50;;;-3.50;99.90;;;;;;4994660;28;20045;-80
2022/12/18 05:28:25;;;;;;;11.82;7.03;;;-3.40;99.90;;;;;;4996894;28;20081;-81
2022/12/18 05:30:52;;;;;;;11.90;6.97;;;-3.40;99.90;;;;;;4996206;28;20090;-82
2022/12/18 05:33:19;;;;;;;13.07;7.55;;;-3.40;99.90;;;;;;4984879;28;20026;-81
2022/12/18 05:35:51;;;;;;;8.50;6.65;;;-3.50;99.90;;;;;;4996398;28;20865;-83
2022/12/18 05:38:17;;;;;;;9.98;7.78;;;-3.50;99.90;;;;;;4984092;28;20118;-82
2022/12/18 05:40:43;;;;;;;12.00;8.80;;;-3.50;99.90;;;;;;4990278;28;20033;-81
2022/12/18 05:43:09;;;;;;;15.07;9.18;;;-3.50;99.90;;;;;;4994080;28;20022;-81
2022/12/18 05:45:38;;;;;;;11.75;8.40;;;-3.50;99.90;;;;;;4994927;28;20043;-80
2022/12/18 05:48:05;;;;;;;14.85;8.65;;;-3.50;99.90;;;;;;5003992;28;20469;-81
2022/12/18 05:50:33;;;;;;;12.02;7.63;;;-3.40;99.90;;;;;;4983420;28;20026;-82
2022/12/18 05:52:59;;;;;;;10.50;6.68;;;-3.50;99.90;;;;;;4996453;28;20049;-82
2022/12/18 05:55:25;;;;;;;10.90;8.05;;;-3.50;99.90;;;;;;4994914;28;20057;-81
2022/12/18 05:57:51;;;;;;;11.40;6.97;;;-3.50;99.90;;;;;;4996345;28;20022;-80
2022/12/18 06:00:17;;;;;;;9.68;6.80;;;-3.50;99.90;;;;;;4998073;28;20045;-81
2022/12/18 06:02:47;;;;;;;12.90;7.30;;;-3.50;99.90;;;;;;4997600;28;20023;-82
2022/12/18 06:05:12;;;;;;;9.93;7.35;;;-3.50;99.90;;;;;;4979439;28;20041;-81
2022/12/18 06:07:38;;;;;;;13.63;7.65;;;-3.50;99.90;;;;;;4995093;28;20388;-81
2022/12/18 06:10:05;;;;;;;12.40;9.25;;;-3.50;99.90;;;;;;4977816;28;20026;-81
2022/12/18 06:12:31;;;;;;;12.80;7.43;;;-3.50;99.90;;;;;;5007103;28;20472;-79
2022/12/18 06:14:57;;;;;;;9.65;5.43;;;-3.50;99.90;;;;;;4998303;28;20033;-81
2022/12/18 06:17:22;;;;;;;10.55;7.35;;;-3.50;99.90;;;;;;4996511;28;20035;-82
2022/12/18 06:19:48;;;;;;;10.68;6.85;;;-3.50;99.90;;;;;;4995150;28;20026;-82
2022/12/18 06:22:14;;;;;;;12.55;8.18;;;-3.50;99.90;;;;;;4994050;28;20464;-81
2022/12/18 06:24:40;;;;;;;11.48;7.70;;;-3.50;99.90;;;;;;4994276;28;20038;-82
2022/12/18 06:27:06;;;;;;;13.80;6.57;;;-3.60;99.90;;;;;;4995789;28;20369;-81
2022/12/18 06:29:31;;;;;;;11.65;7.50;;;-3.60;99.90;;;;;;4988859;28;20464;-83
2022/12/18 06:31:57;;;;;;;12.43;7.47;;;-3.60;99.90;;;;;;4993301;28;20101;-81
2022/12/18 06:34:23;;;;;;;11.77;8.43;;;-3.60;99.90;;;;;;4976188;28;20112;-81
2022/12/18 06:36:49;;;;;;;11.70;6.85;;;-3.50;99.90;;;;;;4993984;28;20026;-81
2022/12/18 06:39:15;;;;;;;11.02;7.07;;;-3.50;99.90;;;;;;4980169;28;20541;-81
2022/12/18 06:41:41;;;;;;;11.80;7.55;;;-3.50;99.90;;;;;;4994176;28;20022;-83
2022/12/18 06:44:06;;;;;;;10.10;7.15;;;-3.50;99.90;;;;;;4996619;28;20109;-80
2022/12/18 06:46:32;;;;;;;11.50;6.85;;;-3.50;99.90;;;;;;4996039;28;20076;-81
2022/12/18 06:48:58;;;;;;;11.20;7.25;;;-3.50;99.90;;;;;;4992753;28;20027;-81
2022/12/18 06:51:24;;;;;;;12.02;8.38;;;-3.50;99.90;;;;;;4984742;28;20113;-83
2022/12/18 06:53:50;;;;;;;11.73;6.63;;;-3.50;99.90;;;;;;4993120;28;20026;-81
2022/12/18 06:56:16;;;;;;;13.20;8.40;;;-3.50;99.90;;;;;;4975879;28;20026;-82
2022/12/18 06:58:42;;;;;;;10.68;7.32;;;-3.50;99.90;;;;;;4993203;28;20034;-82
2022/12/18 07:01:11;;;;;;;16.80;8.40;;;-3.50;99.90;;;;;;4992752;28;20116;-82
2022/12/18 07:03:38;;;;;;;11.15;6.60;;;-3.50;99.90;;;;;;4993245;28;20444;-83
2022/12/18 07:06:04;;;;;;;7.68;6.43;;;-3.50;99.90;;;;;;4993977;28;20157;-83
2022/12/18 07:08:31;;;;;;;10.55;6.05;;;-3.50;99.90;;;;;;4992621;28;20026;-83
2022/12/18 07:10:57;;;;;;;8.35;6.07;;;-3.40;99.90;;;;;;4992925;28;20034;-82
2022/12/18 07:13:23;;;;;;;10.85;7.55;;;-3.40;99.90;;;;;;4997864;28;20511;-83
2022/12/18 07:15:49;;;;;;;9.85;5.68;;;-3.40;99.90;;;;;;4980392;28;20026;-82
2022/12/18 07:18:15;;;;;;;10.80;7.15;;;-3.50;99.90;;;;;;4993778;28;20128;-81
2022/12/18 07:20:41;;;;;;;7.53;6.18;;;-3.40;99.90;;;;;;5002754;28;20030;-83
2022/12/18 07:23:07;;;;;;;9.98;8.77;;;-3.40;99.90;;;;;;5000617;28;20044;-83
2022/12/18 07:25:36;;;;;;;13.50;7.95;;;-3.50;99.90;;;;;;4997336;28;20040;-81
2022/12/18 07:28:03;;;;;;;11.95;7.63;;;-3.40;99.90;;;;;;4997259;28;20038;-85
2022/12/18 07:30:29;;;;;;;12.13;7.70;;;-3.40;99.90;;;;;;4997890;28;20034;-83
2022/12/18 07:32:55;;;;;;;9.20;6.63;;;-3.40;99.90;;;;;;4997460;28;20038;-82
2022/12/18 07:35:20;;;;;;;8.63;6.13;;;-3.40;99.90;;;;;;4979909;28;20109;-83
2022/12/18 07:37:46;;;;;;;10.55;6.78;;;-3.40;99.90;;;;;;4991456;28;20018;-82
2022/12/18 07:40:14;;;;;;;9.70;6.45;;;-3.40;99.90;;;;;;4997509;28;20022;-82
2022/12/18 07:42:40;;;;;;;9.82;6.63;;;-3.40;99.80;;;;;;4996769;28;20015;-83
2022/12/18 07:45:06;;;;;;;9.00;6.20;;;-3.40;99.80;;;;;;4996472;28;20077;-83
2022/12/18 07:47:36;;;;;;;10.13;5.38;;;-3.40;99.70;;;;;;4998182;28;20511;-83
2022/12/18 07:50:03;;;;;;;13.38;7.15;;;-3.40;99.70;;;;;;4997886;28;20109;-83
2022/12/18 07:52:28;;;;;;;9.07;5.80;;;-3.40;99.60;;;;;;4983706;28;20029;-82
2022/12/18 07:54:58;;;;;;;10.02;6.63;;;-3.40;99.20;;;;;;4997732;28;20467;-83
2022/12/18 07:57:24;;;;;;;9.48;6.75;;;-3.40;99.20;;;;;;4998717;28;20446;-82
2022/12/18 07:59:50;;;;;;;10.05;8.40;;;-3.40;99.40;;;;;;4999996;28;20105;-83
2022/12/18 08:02:15;;;;;;;10.20;6.15;;;-3.40;99.50;;;;;;5000803;28;20026;-82
2022/12/18 08:04:41;;;;;;;11.65;6.57;;;-3.30;99.40;;;;;;5005084;28;20540;-81
2022/12/18 08:07:07;;;;;;;10.75;6.80;;;-3.30;99.60;;;;;;5005719;28;20061;-84
2022/12/18 08:09:33;;;;;;;9.10;6.88;;;-3.30;99.40;;;;;;4997344;28;20026;-85
2022/12/18 08:11:59;;;;;;;10.25;6.78;;;-3.30;99.30;;;;;;4996631;28;20467;-84
2022/12/18 08:14:25;;;;;;;9.65;6.05;;;-3.20;99.40;;;;;;4996472;28;20030;-85
2022/12/18 08:16:50;;;;;;;11.07;6.50;;;-3.20;99.20;;;;;;4996722;28;20022;-84
2022/12/18 08:19:16;;;;;;;10.27;6.75;;;-3.30;99.40;;;;;;4998085;28;20033;-84
2022/12/18 08:21:42;;;;;;;11.80;7.30;;;-3.30;99.40;;;;;;4999783;28;20023;-83
2022/12/18 08:24:09;;;;;;;9.52;6.70;;;-3.30;99.50;;;;;;4996694;28;20043;-83
2022/12/18 08:26:35;;;;;;;8.43;6.72;;;-3.30;99.20;;;;;;4991597;28;20081;-82
2022/12/18 08:29:03;;;;;;;9.15;6.57;;;-3.30;99.10;;;;;;4980151;28;20050;-82
2022/12/18 08:31:30;;;;;;;10.88;5.45;;;-3.30;99.30;;;;;;4990155;28;20097;-82
2022/12/18 08:33:56;;;;;;;8.27;4.75;;;-3.30;99.60;;;;;;4977761;28;20019;-81
2022/12/18 08:36:23;;;;;;;11.35;6.55;;;-3.20;99.70;;;;;;4995320;28;20032;-83
2022/12/18 08:38:49;;;;;;;10.38;6.93;;;-3.20;99.70;;;;;;4982657;28;20023;-83
2022/12/18 08:41:17;;;;;;;12.20;7.32;;;-3.20;99.70;;;;;;5000981;28;20407;-82
2022/12/18 08:46:42;;;;;;;10.52;6.95;;;-3.20;99.40;;;;;;4995511;28;20109;-83
2022/12/18 08:49:09;;;;;;;13.02;7.07;;;-3.20;99.40;;;;;;4977611;28;20448;-83
2022/12/18 08:51:35;;;;;;;;;;;-3.20;99.50;;;;;;4975130;28;20034;-80
2022/12/18 08:54:02;;;;;;;8.18;5.88;;;-3.20;99.50;;;;;;4995010;28;19993;-83
2022/12/18 08:56:29;;;;;;;18.98;7.70;;;-3.20;99.80;;;;;;4994446;28;20061;-83
2022/12/18 08:58:56;;;;;;;9.45;5.97;;;-3.10;99.90;;;;;;4995220;28;20048;-82
2022/12/18 09:01:22;;;;;;;11.60;5.95;;;-3.10;99.90;;;;;;4994897;28;20022;-82
2022/12/18 09:03:51;;;;;;;12.25;7.45;;;-3.10;99.90;;;;;;4994998;28;20094;-82
2022/12/18 09:06:21;;;;;;;10.43;6.75;;;-3.10;99.60;;;;;;4978026;28;20070;-84
2022/12/18 09:08:50;;;;;;;11.88;6.32;;;-3.00;99.60;;;;;;4995790;28;20072;-83
2022/12/18 09:11:24;;;;;;;13.20;6.30;;;-3.10;99.60;;;;;;4996012;28;20096;-82
2022/12/18 09:13:51;;;;;;;10.20;6.35;;;-3.00;99.70;;;;;;4989879;28;20042;-82
2022/12/18 09:16:17;;;;;;;10.38;7.68;;;-3.00;99.90;;;;;;4995265;28;20084;-85
2022/12/18 09:18:43;;;;;;;9.52;6.20;;;-3.00;99.90;;;;;;4995972;28;20019;-83
2022/12/18 09:21:15;;;;;;;10.50;5.57;;;-2.90;99.70;;;;;;4997706;28;20079;-85
2022/12/18 09:23:41;;;;;;;9.93;7.05;;;-3.00;99.60;;;;;;4997887;28;20468;-83
2022/12/18 09:26:07;;;;;;;8.80;7.00;;;-2.90;99.70;;;;;;4996105;28;20057;-85
2022/12/18 09:28:33;;;;;;;11.00;6.40;;;-3.00;99.80;;;;;;4996023;28;20022;-84
2022/12/18 09:31:03;;;;;;;9.77;5.85;;;-2.90;99.90;;;;;;4995380;28;20030;-81
2022/12/18 09:33:29;;;;;;;7.85;5.68;;;-2.90;99.90;;;;;;4994114;28;20069;-80
2022/12/18 09:35:55;;;;;;;9.57;6.47;;;-2.90;99.80;;;;;;4993361;28;20030;-84
2022/12/18 09:38:21;;;;;;;9.30;6.18;;;-2.90;99.60;;;;;;4984073;28;20023;-81
2022/12/18 09:41:00;;;;;;;10.07;5.57;;;-2.90;99.80;;;;;;4991521;28;20437;-82
2022/12/18 09:43:45;;;;;;;9.52;5.15;;;-2.80;99.90;;;;;;4975745;28;20122;-82
2022/12/18 09:46:19;;;;;;;8.38;5.60;;;-2.80;99.80;;;;;;4976621;28;20118;-83
2022/12/18 09:48:49;;;;;;;9.52;4.82;;;-2.90;99.70;;;;;;4993724;28;20053;-80
2022/12/18 09:51:22;;;;;;;7.72;4.95;;;-2.80;99.90;;;;;;4976383;28;20387;-83
2022/12/18 09:53:56;;;;;;;9.23;5.75;;;-2.80;99.90;;;;;;4994662;28;20399;-84
2022/12/18 09:56:24;;;;;;;9.30;5.63;;;-2.90;99.60;;;;;;4997840;28;20026;-82
2022/12/18 09:58:59;;;;;;;9.18;5.22;;;-2.90;99.90;;;;;;5006021;28;20026;-82
2022/12/18 10:01:30;;;;;;;12.57;6.15;;;-2.90;99.90;;;;;;5003479;28;20021;-83
2022/12/18 10:03:59;;;;;;;10.30;6.47;;;-2.80;99.90;;;;;;5000816;28;20408;-81
2022/12/18 10:06:37;;;;;;;7.88;5.05;;;-2.90;99.90;;;;;;4978393;28;20053;-81
2022/12/18 10:09:28;;;;;;;8.13;5.25;;;-2.80;99.90;;;;;;4994513;28;20052;-82
2022/12/18 10:12:05;;;;;;;12.68;7.20;;;-2.80;99.90;;;;;;4981838;28;20094;-82
2022/12/18 10:14:56;;;;;;;7.28;4.72;;;-2.80;99.90;;;;;;4995160;28;20115;-81
2022/12/18 10:17:40;;;;;;;8.32;5.97;;;-2.70;99.90;;;;;;4995574;28;20130;-83
2022/12/18 10:20:25;;;;;;;8.38;5.22;;;-2.70;99.90;;;;;;4998620;28;20078;-82
2022/12/18 10:23:33;;;;;;;6.93;4.28;;;-2.70;99.90;;;;;;4988425;28;20015;-82
2022/12/18 10:26:06;;;;;;;8.30;5.28;;;-2.70;99.90;;;;;;4978482;28;20041;-81
2022/12/18 10:28:35;;;;;;;7.88;6.45;;;-2.70;99.90;;;;;;4996962;28;20024;-83
2022/12/18 10:31:02;;;;;;;9.07;5.35;;;-2.70;99.90;;;;;;5003258;28;20022;-87
2022/12/18 10:33:34;;;;;;;8.35;5.75;;;-2.70;99.90;;;;;;4989034;28;20057;-85
2022/12/18 10:36:25;;;;;;;;;;;;;;;;;;;;;
2022/12/18 10:38:52;;;;;;;8.05;5.68;;;-2.70;99.90;;;;;;4981872;28;20562;-81
2022/12/18 10:41:23;;;;;;;9.32;5.18;;;-2.70;99.90;;;;;;4985801;28;20117;-83
2022/12/18 10:44:11;;;;;;;8.30;5.25;;;-2.70;99.90;;;;;;4993835;28;20026;-83
2022/12/18 10:46:38;;;;;;;12.75;6.53;;;-2.60;99.90;;;;;;4976216;28;20062;-84
2022/12/18 10:49:04;;;;;;;7.82;5.10;;;-2.60;99.90;;;;;;4994129;28;20022;-83
2022/12/18 10:51:35;;;;;;;12.20;5.43;;;-2.60;99.90;;;;;;4994121;28;20030;-83
2022/12/18 10:54:17;;;;;;;7.13;5.78;;;-2.50;99.90;;;;;;4993185;28;20081;-82
2022/12/18 10:56:44;;;;;;;10.00;5.05;;;-2.50;99.90;;;;;;4993240;28;20015;-82
2022/12/18 10:59:13;;;;;;;11.23;5.75;;;-2.50;99.60;;;;;;4992767;28;20473;-81
2022/12/18 11:02:02;;;;;;;8.90;5.85;;;-2.50;99.80;;;;;;4992649;28;20018;-80
2022/12/18 11:04:30;;;;;;;9.88;6.53;;;-2.50;99.70;;;;;;4976236;28;20039;-81
2022/12/18 11:06:59;;;;;;;9.50;5.85;;;-2.50;99.70;;;;;;4992910;28;20568;-81
2022/12/18 11:09:33;;;;;;;8.70;4.55;;;-2.50;99.60;;;;;;4993676;28;20054;-82
2022/12/18 11:12:02;;;;;;;8.15;6.25;;;-2.50;99.20;;;;;;4991686;28;20089;-81
2022/12/18 11:14:49;;;;;;;8.82;6.50;;;-2.50;99.30;;;;;;4991701;28;20018;-83
2022/12/18 11:17:21;;;;;;;10.82;4.80;;;-2.40;99.30;;;;;;4977274;28;20392;-81
2022/12/18 11:19:54;;;;;;;7.55;4.50;;;-2.50;99.30;;;;;;4992951;28;20058;-81
2022/12/18 11:22:21;;;;;;;8.88;4.53;;;-2.50;99.40;;;;;;4992593;28;20026;-80
2022/12/18 11:24:58;;;;;;;;;;;-2.50;99.40;;;;;;4997105;28;20046;-82
2022/12/18 11:27:24;;;;;;;8.43;6.03;;;-2.50;99.40;;;;;;4993235;28;20343;-80
2022/12/18 11:29:51;;;;;;;9.38;5.53;;;-2.50;99.30;;;;;;4992604;28;20023;-80
2022/12/18 11:32:37;;;;;;;8.77;5.50;;;-2.50;99.60;;;;;;4976624;28;20034;-81
2022/12/18 11:35:09;;;;;;;8.55;5.18;;;-2.50;99.90;;;;;;4995961;28;20034;-81
2022/12/18 11:37:36;;;;;;;9.73;6.50;;;-2.50;99.90;;;;;;4988506;28;20069;-81
2022/12/18 11:40:17;;;;;;;8.73;5.65;;;-2.50;99.90;;;;;;4985663;28;20022;-82
2022/12/18 11:42:51;;;;;;;6.72;5.35;;;-2.50;99.80;;;;;;5000510;28;20026;-83
2022/12/18 11:45:25;;;;;;;7.47;4.78;;;-2.60;99.70;;;;;;4994469;28;20062;-81
2022/12/18 11:48:18;;;;;;;11.98;5.60;;;-2.60;99.90;;;;;;4995890;28;20018;-81
2022/12/18 11:50:52;;;;;;;8.57;5.00;;;-2.60;99.90;;;;;;5002332;28;20026;-81
2022/12/18 11:53:39;;;;;;;10.38;5.88;;;-2.60;99.90;;;;;;4987657;28;20037;-84
2022/12/18 11:56:34;;;;;;;13.38;5.85;;;-2.50;99.90;;;;;;4996340;28;20110;-82
2022/12/18 11:59:28;;;;;;;7.88;5.38;;;-2.50;99.90;;;;;;4976273;28;20080;-84
2022/12/18 12:02:03;;;;;;;8.18;5.80;;;-2.50;99.90;;;;;;4982357;28;20129;-81
2022/12/18 12:05:04;;;;;;;21.33;5.45;;;-2.60;99.70;;;;;;4993991;28;20392;-83
2022/12/18 12:07:51;;;;;;;7.57;4.25;;;-2.60;99.50;;;;;;4998479;28;20479;-82
2022/12/18 12:10:45;;;;;;;9.75;4.43;;;-2.60;99.40;;;;;;4986636;28;20089;-82
2022/12/18 12:13:40;;;;;;;11.27;4.97;;;-2.70;99.40;;;;;;4999321;28;20019;-84
2022/12/18 12:16:22;;;;;;;6.75;4.70;;;-2.70;99.40;;;;;;5002464;28;20022;-82
2022/12/18 12:18:53;;;;;;;7.63;4.20;;;-2.70;99.40;;;;;;4973314;28;20038;-81
2022/12/18 12:21:42;;;;;;;9.07;5.03;;;-2.60;99.50;;;;;;4996032;28;20026;-83
2022/12/18 12:24:21;;;;;;;9.43;4.50;;;-2.60;99.40;;;;;;4995691;28;20045;-82
2022/12/18 12:27:18;;;;;;;8.10;5.30;;;-2.60;99.30;;;;;;4995627;28;20038;-83
2022/12/18 12:30:07;;;;;;;6.63;3.47;;;-2.60;99.30;;;;;;4996258;28;20089;-84
2022/12/18 12:32:52;;;;;;;8.50;4.63;;;-2.60;99.00;;;;;;4958456;28;20051;-82
2022/12/18 12:35:29;;;;;;;6.50;4.18;;;-2.60;98.90;;;;;;4977418;28;20069;-80
2022/12/18 12:38:08;;;;;;;6.47;4.07;;;-2.60;99.10;;;;;;4987703;28;20098;-80
2022/12/18 12:40:39;;;;;;;6.82;4.15;;;-2.60;98.90;;;;;;4960420;28;20050;-81
2022/12/18 12:43:41;;;;;;;12.73;4.85;;;-2.60;98.70;;;;;;4994297;28;20026;-83
2022/12/18 12:46:16;;;;;;;9.63;4.20;;;-2.60;98.70;;;;;;4976592;28;20065;-82
2022/12/18 12:48:56;;;;;;;5.90;4.47;;;-2.50;98.90;;;;;;4994914;28;20029;-81
2022/12/18 12:51:21;;;;;;;4.82;3.20;;;-2.60;98.90;;;;;;4966930;28;20049;-78
2022/12/18 12:53:48;;;;;;;4.70;3.03;;;-2.50;99.20;;;;;;4995100;28;20489;-80
2022/12/18 12:56:17;;;;;;;5.75;3.95;;;-2.60;99.70;;;;;;4994659;28;20029;-80
2022/12/18 12:59:22;;;;;;;7.00;4.93;;;-2.60;99.80;;;;;;4994892;28;20038;-83
2022/12/18 13:01:59;;;;;;;9.45;4.35;;;-2.60;99.90;;;;;;4955150;28;20065;-82
2022/12/18 13:04:40;;;;;;;11.10;5.10;;;-2.60;99.90;;;;;;4978840;28;20045;-82